sensor_id;sensor_type;location;lat;lon;timestamp;P1;durP1;ratioP1;P2;durP2;ratioP2
55146;SDS011;41039;49.830;23.988;2023-02-28T00:01:23;8.48;;;4.45;;
55146;SDS011;41039;49.830;23.988;2023-02-28T00:03:49;7.75;;;3.92;;
55146;SDS011;41039;49.830;23.988;2023-02-28T00:06:14;7.97;;;4.90;;
55146;SDS011;41039;49.830;23.988;2023-02-28T00:08:39;8.82;;;4.18;;
55146;SDS011;41039;49.830;23.988;2023-02-28T00:11:05;7.20;;;4.30;;
55146;SDS011;41039;49.830;23.988;2023-02-28T00:13:31;10.38;;;5.38;;
55146;SDS011;41039;49.830;23.988;2023-02-28T00:16:00;11.25;;;4.90;;
55146;SDS011;41039;49.830;23.988;2023-02-28T00:18:25;9.10;;;4.90;;
55146;SDS011;41039;49.830;23.988;2023-02-28T00:20:50;10.13;;;5.15;;
55146;SDS011;41039;49.830;23.988;2023-02-28T00:23:16;7.90;;;4.47;;
55146;SDS011;41039;49.830;23.988;2023-02-28T00:25:41;9.60;;;5.32;;
55146;SDS011;41039;49.830;23.988;2023-02-28T00:28:06;7.25;;;4.20;;
55146;SDS011;41039;49.830;23.988;2023-02-28T00:30:31;8.77;;;4.30;;
55146;SDS011;41039;49.830;23.988;2023-02-28T00:32:56;7.65;;;4.45;;
55146;SDS011;41039;49.830;23.988;2023-02-28T00:35:22;8.10;;;5.15;;
55146;SDS011;41039;49.830;23.988;2023-02-28T00:37:47;8.82;;;4.40;;
55146;SDS011;41039;49.830;23.988;2023-02-28T00:40:12;6.85;;;3.58;;
55146;SDS011;41039;49.830;23.988;2023-02-28T00:42:38;8.15;;;4.07;;
55146;SDS011;41039;49.830;23.988;2023-02-28T00:45:04;7.00;;;3.58;;
55146;SDS011;41039;49.830;23.988;2023-02-28T00:47:30;8.30;;;3.97;;
55146;SDS011;41039;49.830;23.988;2023-02-28T00:49:55;5.72;;;3.78;;
55146;SDS011;41039;49.830;23.988;2023-02-28T00:52:20;7.60;;;3.60;;
55146;SDS011;41039;49.830;23.988;2023-02-28T00:54:46;6.97;;;4.38;;
55146;SDS011;41039;49.830;23.988;2023-02-28T00:57:11;9.43;;;4.70;;
55146;SDS011;41039;49.830;23.988;2023-02-28T00:59:37;8.20;;;4.72;;
55146;SDS011;41039;49.830;23.988;2023-02-28T01:02:02;11.57;;;6.80;;
55146;SDS011;41039;49.830;23.988;2023-02-28T01:04:27;9.65;;;6.22;;
55146;SDS011;41039;49.830;23.988;2023-02-28T01:06:53;11.07;;;6.47;;
55146;SDS011;41039;49.830;23.988;2023-02-28T01:09:18;13.13;;;7.55;;
55146;SDS011;41039;49.830;23.988;2023-02-28T01:11:43;9.20;;;6.25;;
55146;SDS011;41039;49.830;23.988;2023-02-28T01:14:11;16.02;;;6.60;;
55146;SDS011;41039;49.830;23.988;2023-02-28T01:16:37;8.35;;;5.13;;
55146;SDS011;41039;49.830;23.988;2023-02-28T01:19:02;8.30;;;4.63;;
55146;SDS011;41039;49.830;23.988;2023-02-28T01:21:27;7.30;;;4.20;;
55146;SDS011;41039;49.830;23.988;2023-02-28T01:23:55;8.25;;;4.95;;
55146;SDS011;41039;49.830;23.988;2023-02-28T01:26:21;9.02;;;3.88;;
55146;SDS011;41039;49.830;23.988;2023-02-28T01:28:47;12.27;;;4.80;;
55146;SDS011;41039;49.830;23.988;2023-02-28T01:31:13;10.20;;;4.90;;
55146;SDS011;41039;49.830;23.988;2023-02-28T01:33:39;8.88;;;4.32;;
55146;SDS011;41039;49.830;23.988;2023-02-28T01:36:05;7.32;;;4.22;;
55146;SDS011;41039;49.830;23.988;2023-02-28T01:38:31;11.68;;;5.20;;
55146;SDS011;41039;49.830;23.988;2023-02-28T01:40:56;8.60;;;4.65;;
55146;SDS011;41039;49.830;23.988;2023-02-28T01:43:26;10.70;;;6.28;;
55146;SDS011;41039;49.830;23.988;2023-02-28T01:45:53;9.32;;;4.90;;
55146;SDS011;41039;49.830;23.988;2023-02-28T01:48:18;9.65;;;4.65;;
55146;SDS011;41039;49.830;23.988;2023-02-28T01:50:44;16.42;;;4.93;;
55146;SDS011;41039;49.830;23.988;2023-02-28T01:53:12;9.95;;;5.72;;
55146;SDS011;41039;49.830;23.988;2023-02-28T01:55:38;10.50;;;6.20;;
55146;SDS011;41039;49.830;23.988;2023-02-28T01:58:05;10.48;;;5.20;;
55146;SDS011;41039;49.830;23.988;2023-02-28T02:00:31;8.30;;;4.38;;
55146;SDS011;41039;49.830;23.988;2023-02-28T02:02:57;10.02;;;5.63;;
55146;SDS011;41039;49.830;23.988;2023-02-28T02:05:24;10.73;;;6.68;;
55146;SDS011;41039;49.830;23.988;2023-02-28T02:07:51;11.65;;;6.70;;
55146;SDS011;41039;49.830;23.988;2023-02-28T02:10:18;11.25;;;6.97;;
55146;SDS011;41039;49.830;23.988;2023-02-28T02:12:49;10.43;;;5.60;;
55146;SDS011;41039;49.830;23.988;2023-02-28T02:15:24;11.52;;;6.40;;
55146;SDS011;41039;49.830;23.988;2023-02-28T02:17:54;10.18;;;5.40;;
55146;SDS011;41039;49.830;23.988;2023-02-28T02:20:29;8.93;;;5.50;;
55146;SDS011;41039;49.830;23.988;2023-02-28T02:28:13;11.95;;;6.57;;
55146;SDS011;41039;49.830;23.988;2023-02-28T02:40:52;12.80;;;8.07;;
55146;SDS011;41039;49.830;23.988;2023-02-28T02:43:19;14.27;;;8.65;;
55146;SDS011;41039;49.830;23.988;2023-02-28T02:45:55;12.35;;;8.25;;
55146;SDS011;41039;49.830;23.988;2023-02-28T02:48:23;12.98;;;7.85;;
55146;SDS011;41039;49.830;23.988;2023-02-28T02:50:52;12.15;;;8.13;;
55146;SDS011;41039;49.830;23.988;2023-02-28T02:53:19;11.40;;;7.75;;
55146;SDS011;41039;49.830;23.988;2023-02-28T02:55:47;13.00;;;8.90;;
55146;SDS011;41039;49.830;23.988;2023-02-28T02:58:17;12.07;;;7.22;;
55146;SDS011;41039;49.830;23.988;2023-02-28T03:00:45;10.65;;;7.15;;
55146;SDS011;41039;49.830;23.988;2023-02-28T03:03:11;10.60;;;5.88;;
55146;SDS011;41039;49.830;23.988;2023-02-28T03:05:47;10.23;;;5.80;;
55146;SDS011;41039;49.830;23.988;2023-02-28T03:08:13;8.30;;;5.38;;
55146;SDS011;41039;49.830;23.988;2023-02-28T03:10:40;13.52;;;7.18;;
55146;SDS011;41039;49.830;23.988;2023-02-28T03:13:26;13.55;;;7.03;;
55146;SDS011;41039;49.830;23.988;2023-02-28T03:15:58;14.25;;;7.82;;
55146;SDS011;41039;49.830;23.988;2023-02-28T03:18:34;14.10;;;8.45;;
55146;SDS011;41039;49.830;23.988;2023-02-28T03:24:13;13.90;;;7.70;;
55146;SDS011;41039;49.830;23.988;2023-02-28T03:26:13;13.55;;;7.72;;
55146;SDS011;41039;49.830;23.988;2023-02-28T03:28:43;11.05;;;7.65;;
55146;SDS011;41039;49.830;23.988;2023-02-28T03:33:38;13.50;;;7.97;;
55146;SDS011;41039;49.830;23.988;2023-02-28T03:36:06;15.95;;;9.13;;
55146;SDS011;41039;49.830;23.988;2023-02-28T03:38:34;15.27;;;9.60;;
55146;SDS011;41039;49.830;23.988;2023-02-28T03:41:05;12.32;;;8.82;;
55146;SDS011;41039;49.830;23.988;2023-02-28T03:43:33;17.45;;;10.13;;
55146;SDS011;41039;49.830;23.988;2023-02-28T03:45:59;18.50;;;11.27;;
55146;SDS011;41039;49.830;23.988;2023-02-28T03:48:31;30.13;;;12.55;;
55146;SDS011;41039;49.830;23.988;2023-02-28T03:50:57;23.05;;;13.15;;
55146;SDS011;41039;49.830;23.988;2023-02-28T03:53:34;26.05;;;14.50;;
55146;SDS011;41039;49.830;23.988;2023-02-28T03:56:06;24.40;;;13.38;;
55146;SDS011;41039;49.830;23.988;2023-02-28T04:01:10;22.70;;;13.30;;
55146;SDS011;41039;49.830;23.988;2023-02-28T04:03:37;20.25;;;12.73;;
55146;SDS011;41039;49.830;23.988;2023-02-28T04:06:03;23.08;;;14.05;;
55146;SDS011;41039;49.830;23.988;2023-02-28T04:08:29;39.33;;;19.17;;
55146;SDS011;41039;49.830;23.988;2023-02-28T04:11:04;35.33;;;18.10;;
55146;SDS011;41039;49.830;23.988;2023-02-28T04:13:31;31.17;;;17.77;;
55146;SDS011;41039;49.830;23.988;2023-02-28T04:15:56;38.40;;;20.50;;
55146;SDS011;41039;49.830;23.988;2023-02-28T04:18:22;34.05;;;18.63;;
55146;SDS011;41039;49.830;23.988;2023-02-28T04:20:47;37.85;;;19.02;;
55146;SDS011;41039;49.830;23.988;2023-02-28T04:23:12;37.35;;;19.70;;
55146;SDS011;41039;49.830;23.988;2023-02-28T04:25:38;43.10;;;20.52;;
55146;SDS011;41039;49.830;23.988;2023-02-28T04:28:05;39.40;;;19.13;;
55146;SDS011;41039;49.830;23.988;2023-02-28T04:30:30;43.08;;;20.45;;
55146;SDS011;41039;49.830;23.988;2023-02-28T04:32:57;32.45;;;16.52;;
55146;SDS011;41039;49.830;23.988;2023-02-28T04:35:23;36.22;;;16.40;;
55146;SDS011;41039;49.830;23.988;2023-02-28T04:37:48;34.40;;;19.00;;
55146;SDS011;41039;49.830;23.988;2023-02-28T04:40:13;31.00;;;16.15;;
55146;SDS011;41039;49.830;23.988;2023-02-28T04:42:38;32.50;;;15.63;;
55146;SDS011;41039;49.830;23.988;2023-02-28T04:45:04;25.88;;;13.48;;
55146;SDS011;41039;49.830;23.988;2023-02-28T04:47:29;31.48;;;16.05;;
55146;SDS011;41039;49.830;23.988;2023-02-28T04:49:55;26.50;;;15.38;;
55146;SDS011;41039;49.830;23.988;2023-02-28T04:52:20;31.92;;;16.10;;
55146;SDS011;41039;49.830;23.988;2023-02-28T04:54:45;30.15;;;14.77;;
55146;SDS011;41039;49.830;23.988;2023-02-28T04:57:10;43.88;;;20.33;;
55146;SDS011;41039;49.830;23.988;2023-02-28T04:59:35;49.25;;;23.23;;
55146;SDS011;41039;49.830;23.988;2023-02-28T05:02:01;50.25;;;24.90;;
55146;SDS011;41039;49.830;23.988;2023-02-28T05:04:31;52.70;;;29.85;;
55146;SDS011;41039;49.830;23.988;2023-02-28T05:06:59;54.78;;;26.15;;
55146;SDS011;41039;49.830;23.988;2023-02-28T05:09:24;54.42;;;27.48;;
55146;SDS011;41039;49.830;23.988;2023-02-28T05:11:49;34.80;;;16.77;;
55146;SDS011;41039;49.830;23.988;2023-02-28T05:14:14;23.40;;;11.55;;
55146;SDS011;41039;49.830;23.988;2023-02-28T05:16:40;17.92;;;9.52;;
55146;SDS011;41039;49.830;23.988;2023-02-28T05:19:05;16.52;;;9.32;;
55146;SDS011;41039;49.830;23.988;2023-02-28T05:23:56;20.40;;;9.90;;
55146;SDS011;41039;49.830;23.988;2023-02-28T05:26:22;16.88;;;9.38;;
55146;SDS011;41039;49.830;23.988;2023-02-28T05:28:47;14.57;;;8.38;;
55146;SDS011;41039;49.830;23.988;2023-02-28T05:31:13;17.65;;;9.20;;
55146;SDS011;41039;49.830;23.988;2023-02-28T05:33:38;19.23;;;12.50;;
55146;SDS011;41039;49.830;23.988;2023-02-28T05:36:04;19.00;;;10.15;;
55146;SDS011;41039;49.830;23.988;2023-02-28T05:38:30;17.80;;;9.45;;
55146;SDS011;41039;49.830;23.988;2023-02-28T05:40:55;17.58;;;10.70;;
55146;SDS011;41039;49.830;23.988;2023-02-28T05:43:21;18.25;;;9.60;;
55146;SDS011;41039;49.830;23.988;2023-02-28T05:45:46;18.63;;;11.30;;
55146;SDS011;41039;49.830;23.988;2023-02-28T05:48:11;20.20;;;11.70;;
55146;SDS011;41039;49.830;23.988;2023-02-28T05:50:36;22.48;;;13.23;;
55146;SDS011;41039;49.830;23.988;2023-02-28T05:53:02;16.58;;;9.65;;
55146;SDS011;41039;49.830;23.988;2023-02-28T05:55:27;21.63;;;12.45;;
55146;SDS011;41039;49.830;23.988;2023-02-28T05:57:52;21.15;;;12.98;;
55146;SDS011;41039;49.830;23.988;2023-02-28T06:00:17;23.80;;;14.48;;
55146;SDS011;41039;49.830;23.988;2023-02-28T06:02:43;17.23;;;10.75;;
55146;SDS011;41039;49.830;23.988;2023-02-28T06:05:12;19.27;;;11.50;;
55146;SDS011;41039;49.830;23.988;2023-02-28T06:07:38;16.17;;;9.48;;
55146;SDS011;41039;49.830;23.988;2023-02-28T06:10:04;14.70;;;8.00;;
55146;SDS011;41039;49.830;23.988;2023-02-28T06:12:29;17.50;;;10.00;;
55146;SDS011;41039;49.830;23.988;2023-02-28T06:14:54;19.67;;;10.20;;
55146;SDS011;41039;49.830;23.988;2023-02-28T06:17:19;20.27;;;10.23;;
55146;SDS011;41039;49.830;23.988;2023-02-28T06:19:45;22.13;;;11.13;;
55146;SDS011;41039;49.830;23.988;2023-02-28T06:22:10;24.42;;;12.38;;
55146;SDS011;41039;49.830;23.988;2023-02-28T06:24:35;29.05;;;14.73;;
55146;SDS011;41039;49.830;23.988;2023-02-28T06:27:00;28.48;;;12.82;;
55146;SDS011;41039;49.830;23.988;2023-02-28T06:29:30;19.83;;;9.93;;
55146;SDS011;41039;49.830;23.988;2023-02-28T06:31:55;15.57;;;7.43;;
55146;SDS011;41039;49.830;23.988;2023-02-28T06:34:20;17.73;;;7.82;;
55146;SDS011;41039;49.830;23.988;2023-02-28T06:36:46;21.70;;;10.98;;
55146;SDS011;41039;49.830;23.988;2023-02-28T06:39:11;35.47;;;12.48;;
55146;SDS011;41039;49.830;23.988;2023-02-28T06:41:36;20.58;;;13.20;;
55146;SDS011;41039;49.830;23.988;2023-02-28T06:44:05;23.10;;;12.20;;
55146;SDS011;41039;49.830;23.988;2023-02-28T06:46:31;24.08;;;12.05;;
55146;SDS011;41039;49.830;23.988;2023-02-28T06:48:56;27.02;;;14.38;;
55146;SDS011;41039;49.830;23.988;2023-02-28T06:51:21;23.45;;;12.13;;
55146;SDS011;41039;49.830;23.988;2023-02-28T06:53:47;27.83;;;18.98;;
55146;SDS011;41039;49.830;23.988;2023-02-28T06:56:13;24.38;;;12.82;;
55146;SDS011;41039;49.830;23.988;2023-02-28T06:58:39;16.40;;;9.43;;
55146;SDS011;41039;49.830;23.988;2023-02-28T07:01:05;18.63;;;10.02;;
55146;SDS011;41039;49.830;23.988;2023-02-28T07:03:31;21.20;;;9.70;;
55146;SDS011;41039;49.830;23.988;2023-02-28T07:05:56;13.77;;;8.63;;
55146;SDS011;41039;49.830;23.988;2023-02-28T07:08:22;18.05;;;10.50;;
55146;SDS011;41039;49.830;23.988;2023-02-28T07:10:47;16.40;;;9.20;;
55146;SDS011;41039;49.830;23.988;2023-02-28T07:13:16;21.83;;;10.45;;
55146;SDS011;41039;49.830;23.988;2023-02-28T07:15:41;23.75;;;11.15;;
55146;SDS011;41039;49.830;23.988;2023-02-28T07:18:06;22.20;;;12.20;;
55146;SDS011;41039;49.830;23.988;2023-02-28T07:20:32;23.67;;;11.45;;
55146;SDS011;41039;49.830;23.988;2023-02-28T07:22:57;23.02;;;10.27;;
55146;SDS011;41039;49.830;23.988;2023-02-28T07:25:23;21.63;;;11.82;;
55146;SDS011;41039;49.830;23.988;2023-02-28T07:27:48;28.77;;;14.52;;
55146;SDS011;41039;49.830;23.988;2023-02-28T07:30:13;22.58;;;13.40;;
55146;SDS011;41039;49.830;23.988;2023-02-28T07:32:39;18.27;;;11.10;;
55146;SDS011;41039;49.830;23.988;2023-02-28T07:35:04;20.77;;;11.05;;
55146;SDS011;41039;49.830;23.988;2023-02-28T07:37:29;19.50;;;10.18;;
55146;SDS011;41039;49.830;23.988;2023-02-28T07:39:56;12.80;;;8.13;;
55146;SDS011;41039;49.830;23.988;2023-02-28T07:42:21;17.13;;;9.88;;
55146;SDS011;41039;49.830;23.988;2023-02-28T07:44:47;17.10;;;11.27;;
55146;SDS011;41039;49.830;23.988;2023-02-28T07:47:12;19.65;;;10.98;;
55146;SDS011;41039;49.830;23.988;2023-02-28T07:49:37;17.92;;;10.35;;
55146;SDS011;41039;49.830;23.988;2023-02-28T07:52:06;16.30;;;8.77;;
55146;SDS011;41039;49.830;23.988;2023-02-28T07:54:31;19.58;;;10.07;;
55146;SDS011;41039;49.830;23.988;2023-02-28T07:56:57;19.05;;;10.40;;
55146;SDS011;41039;49.830;23.988;2023-02-28T07:59:22;19.17;;;11.38;;
55146;SDS011;41039;49.830;23.988;2023-02-28T08:01:47;18.70;;;10.35;;
55146;SDS011;41039;49.830;23.988;2023-02-28T08:04:15;24.13;;;12.23;;
55146;SDS011;41039;49.830;23.988;2023-02-28T08:06:40;23.63;;;11.88;;
55146;SDS011;41039;49.830;23.988;2023-02-28T08:09:05;19.83;;;11.07;;
55146;SDS011;41039;49.830;23.988;2023-02-28T08:11:31;20.08;;;11.23;;
55146;SDS011;41039;49.830;23.988;2023-02-28T08:13:56;21.42;;;12.00;;
55146;SDS011;41039;49.830;23.988;2023-02-28T08:16:21;21.67;;;11.85;;
55146;SDS011;41039;49.830;23.988;2023-02-28T08:18:50;23.23;;;13.60;;
55146;SDS011;41039;49.830;23.988;2023-02-28T08:21:15;22.27;;;13.32;;
55146;SDS011;41039;49.830;23.988;2023-02-28T08:23:41;21.30;;;11.32;;
55146;SDS011;41039;49.830;23.988;2023-02-28T08:26:06;20.45;;;13.15;;
55146;SDS011;41039;49.830;23.988;2023-02-28T08:28:31;22.08;;;12.82;;
55146;SDS011;41039;49.830;23.988;2023-02-28T08:30:56;23.10;;;12.95;;
55146;SDS011;41039;49.830;23.988;2023-02-28T08:33:22;22.83;;;12.75;;
55146;SDS011;41039;49.830;23.988;2023-02-28T08:35:47;20.00;;;11.48;;
55146;SDS011;41039;49.830;23.988;2023-02-28T08:38:13;25.88;;;13.63;;
55146;SDS011;41039;49.830;23.988;2023-02-28T08:40:38;23.92;;;14.13;;
55146;SDS011;41039;49.830;23.988;2023-02-28T08:43:03;26.58;;;14.82;;
55146;SDS011;41039;49.830;23.988;2023-02-28T08:45:28;24.45;;;14.40;;
55146;SDS011;41039;49.830;23.988;2023-02-28T08:47:54;31.83;;;15.85;;
55146;SDS011;41039;49.830;23.988;2023-02-28T08:50:20;26.38;;;14.65;;
55146;SDS011;41039;49.830;23.988;2023-02-28T08:52:45;27.75;;;16.13;;
55146;SDS011;41039;49.830;23.988;2023-02-28T08:55:10;26.25;;;14.40;;
55146;SDS011;41039;49.830;23.988;2023-02-28T08:57:36;28.30;;;14.93;;
55146;SDS011;41039;49.830;23.988;2023-02-28T09:00:02;21.85;;;14.05;;
55146;SDS011;41039;49.830;23.988;2023-02-28T09:02:29;20.50;;;13.65;;
55146;SDS011;41039;49.830;23.988;2023-02-28T09:04:54;22.48;;;13.35;;
55146;SDS011;41039;49.830;23.988;2023-02-28T09:07:20;28.52;;;16.20;;
55146;SDS011;41039;49.830;23.988;2023-02-28T09:09:45;24.23;;;13.32;;
55146;SDS011;41039;49.830;23.988;2023-02-28T09:12:19;24.13;;;14.13;;
55146;SDS011;41039;49.830;23.988;2023-02-28T09:14:44;24.35;;;13.77;;
55146;SDS011;41039;49.830;23.988;2023-02-28T09:17:09;19.08;;;12.65;;
55146;SDS011;41039;49.830;23.988;2023-02-28T09:19:34;18.00;;;9.43;;
55146;SDS011;41039;49.830;23.988;2023-02-28T09:22:00;14.48;;;6.97;;
55146;SDS011;41039;49.830;23.988;2023-02-28T09:24:25;13.73;;;7.18;;
55146;SDS011;41039;49.830;23.988;2023-02-28T09:26:50;17.13;;;9.07;;
55146;SDS011;41039;49.830;23.988;2023-02-28T09:29:15;17.92;;;9.82;;
55146;SDS011;41039;49.830;23.988;2023-02-28T09:31:42;16.20;;;8.75;;
55146;SDS011;41039;49.830;23.988;2023-02-28T09:34:07;15.38;;;8.68;;
55146;SDS011;41039;49.830;23.988;2023-02-28T09:36:32;13.55;;;8.02;;
55146;SDS011;41039;49.830;23.988;2023-02-28T09:38:58;15.55;;;8.00;;
55146;SDS011;41039;49.830;23.988;2023-02-28T09:41:27;15.98;;;7.43;;
55146;SDS011;41039;49.830;23.988;2023-02-28T09:44:00;16.45;;;7.25;;
55146;SDS011;41039;49.830;23.988;2023-02-28T09:46:43;15.68;;;8.07;;
55146;SDS011;41039;49.830;23.988;2023-02-28T09:49:14;12.30;;;7.63;;
55146;SDS011;41039;49.830;23.988;2023-02-28T09:54:11;12.73;;;8.32;;
55146;SDS011;41039;49.830;23.988;2023-02-28T09:56:39;13.52;;;7.75;;
55146;SDS011;41039;49.830;23.988;2023-02-28T09:59:17;14.43;;;8.35;;
55146;SDS011;41039;49.830;23.988;2023-02-28T10:01:53;13.23;;;8.30;;
55146;SDS011;41039;49.830;23.988;2023-02-28T10:06:48;14.25;;;8.55;;
55146;SDS011;41039;49.830;23.988;2023-02-28T10:09:30;11.80;;;7.70;;
55146;SDS011;41039;49.830;23.988;2023-02-28T10:11:59;15.18;;;8.18;;
55146;SDS011;41039;49.830;23.988;2023-02-28T10:14:26;12.43;;;8.15;;
55146;SDS011;41039;49.830;23.988;2023-02-28T10:16:54;12.43;;;7.75;;
55146;SDS011;41039;49.830;23.988;2023-02-28T10:21:59;18.25;;;10.02;;
55146;SDS011;41039;49.830;23.988;2023-02-28T10:26:50;13.48;;;9.93;;
55146;SDS011;41039;49.830;23.988;2023-02-28T10:29:17;12.63;;;8.70;;
55146;SDS011;41039;49.830;23.988;2023-02-28T10:31:43;18.05;;;9.10;;
55146;SDS011;41039;49.830;23.988;2023-02-28T10:34:08;15.75;;;11.18;;
55146;SDS011;41039;49.830;23.988;2023-02-28T10:36:36;15.82;;;9.90;;
55146;SDS011;41039;49.830;23.988;2023-02-28T10:39:02;15.23;;;8.35;;
55146;SDS011;41039;49.830;23.988;2023-02-28T10:41:47;11.05;;;7.95;;
55146;SDS011;41039;49.830;23.988;2023-02-28T10:44:13;12.57;;;7.35;;
55146;SDS011;41039;49.830;23.988;2023-02-28T10:46:40;12.30;;;7.97;;
55146;SDS011;41039;49.830;23.988;2023-02-28T10:49:11;9.30;;;7.05;;
55146;SDS011;41039;49.830;23.988;2023-02-28T10:51:38;8.70;;;6.03;;
55146;SDS011;41039;49.830;23.988;2023-02-28T10:54:04;12.40;;;9.20;;
55146;SDS011;41039;49.830;23.988;2023-02-28T10:56:30;10.55;;;7.57;;
55146;SDS011;41039;49.830;23.988;2023-02-28T11:03:49;10.73;;;8.30;;
55146;SDS011;41039;49.830;23.988;2023-02-28T11:06:23;13.73;;;10.73;;
55146;SDS011;41039;49.830;23.988;2023-02-28T11:08:54;11.82;;;8.93;;
55146;SDS011;41039;49.830;23.988;2023-02-28T11:11:20;12.13;;;9.98;;
55146;SDS011;41039;49.830;23.988;2023-02-28T11:13:47;13.68;;;10.27;;
55146;SDS011;41039;49.830;23.988;2023-02-28T11:16:13;12.93;;;9.43;;
55146;SDS011;41039;49.830;23.988;2023-02-28T11:21:07;9.38;;;7.18;;
55146;SDS011;41039;49.830;23.988;2023-02-28T11:23:34;12.95;;;8.98;;
55146;SDS011;41039;49.830;23.988;2023-02-28T11:26:02;11.38;;;8.52;;
55146;SDS011;41039;49.830;23.988;2023-02-28T11:28:33;15.23;;;10.27;;
55146;SDS011;41039;49.830;23.988;2023-02-28T11:31:14;15.95;;;11.00;;
55146;SDS011;41039;49.830;23.988;2023-02-28T11:33:44;17.08;;;10.98;;
55146;SDS011;41039;49.830;23.988;2023-02-28T11:36:14;15.32;;;11.07;;
55146;SDS011;41039;49.830;23.988;2023-02-28T11:38:41;14.30;;;11.55;;
55146;SDS011;41039;49.830;23.988;2023-02-28T11:46:29;19.90;;;12.52;;
55146;SDS011;41039;49.830;23.988;2023-02-28T12:02:23;17.00;;;12.10;;
55146;SDS011;41039;49.830;23.988;2023-02-28T12:12:19;19.38;;;12.73;;
55146;SDS011;41039;49.830;23.988;2023-02-28T12:14:49;18.65;;;11.60;;
55146;SDS011;41039;49.830;23.988;2023-02-28T12:17:20;16.75;;;11.43;;
55146;SDS011;41039;49.830;23.988;2023-02-28T12:27:40;16.88;;;12.15;;
55146;SDS011;41039;49.830;23.988;2023-02-28T12:32:38;22.33;;;13.20;;
55146;SDS011;41039;49.830;23.988;2023-02-28T12:38:22;20.92;;;11.85;;
55146;SDS011;41039;49.830;23.988;2023-02-28T12:40:50;17.98;;;11.65;;
55146;SDS011;41039;49.830;23.988;2023-02-28T12:43:17;26.00;;;12.40;;
55146;SDS011;41039;49.830;23.988;2023-02-28T12:45:50;31.77;;;14.75;;
55146;SDS011;41039;49.830;23.988;2023-02-28T12:50:44;26.08;;;15.35;;
55146;SDS011;41039;49.830;23.988;2023-02-28T12:53:13;27.42;;;16.00;;
55146;SDS011;41039;49.830;23.988;2023-02-28T13:00:43;24.33;;;13.68;;
55146;SDS011;41039;49.830;23.988;2023-02-28T13:11:08;25.17;;;12.77;;
55146;SDS011;41039;49.830;23.988;2023-02-28T13:13:47;35.72;;;14.77;;
55146;SDS011;41039;49.830;23.988;2023-02-28T13:16:13;23.95;;;12.32;;
55146;SDS011;41039;49.830;23.988;2023-02-28T13:18:39;19.52;;;12.73;;
55146;SDS011;41039;49.830;23.988;2023-02-28T13:21:22;34.28;;;14.45;;
55146;SDS011;41039;49.830;23.988;2023-02-28T13:29:01;33.75;;;17.38;;
55146;SDS011;41039;49.830;23.988;2023-02-28T13:31:27;29.02;;;16.52;;
55146;SDS011;41039;49.830;23.988;2023-02-28T13:36:31;22.08;;;14.13;;
55146;SDS011;41039;49.830;23.988;2023-02-28T13:38:58;28.45;;;16.00;;
55146;SDS011;41039;49.830;23.988;2023-02-28T13:44:04;30.55;;;16.77;;
55146;SDS011;41039;49.830;23.988;2023-02-28T13:46:30;26.90;;;15.05;;
55146;SDS011;41039;49.830;23.988;2023-02-28T13:48:55;30.38;;;16.92;;
55146;SDS011;41039;49.830;23.988;2023-02-28T13:56:53;34.95;;;17.33;;
55146;SDS011;41039;49.830;23.988;2023-02-28T13:59:46;25.25;;;15.25;;
55146;SDS011;41039;49.830;23.988;2023-02-28T14:04:57;27.88;;;14.48;;
55146;SDS011;41039;49.830;23.988;2023-02-28T14:07:26;42.25;;;15.77;;
55146;SDS011;41039;49.830;23.988;2023-02-28T14:10:06;30.25;;;14.77;;
55146;SDS011;41039;49.830;23.988;2023-02-28T14:17:57;26.98;;;15.02;;
55146;SDS011;41039;49.830;23.988;2023-02-28T14:20:27;28.83;;;14.43;;
55146;SDS011;41039;49.830;23.988;2023-02-28T14:23:14;28.65;;;15.15;;
55146;SDS011;41039;49.830;23.988;2023-02-28T14:25:47;29.70;;;15.02;;
55146;SDS011;41039;49.830;23.988;2023-02-28T14:31:07;23.58;;;13.32;;
55146;SDS011;41039;49.830;23.988;2023-02-28T14:38:29;25.35;;;13.43;;
55146;SDS011;41039;49.830;23.988;2023-02-28T14:40:56;24.58;;;12.90;;
55146;SDS011;41039;49.830;23.988;2023-02-28T14:43:23;27.80;;;13.45;;
55146;SDS011;41039;49.830;23.988;2023-02-28T14:45:56;26.80;;;13.70;;
55146;SDS011;41039;49.830;23.988;2023-02-28T14:48:22;29.70;;;16.35;;
55146;SDS011;41039;49.830;23.988;2023-02-28T14:50:48;24.77;;;14.18;;
55146;SDS011;41039;49.830;23.988;2023-02-28T14:53:15;29.55;;;13.23;;
55146;SDS011;41039;49.830;23.988;2023-02-28T14:55:44;21.20;;;11.32;;
55146;SDS011;41039;49.830;23.988;2023-02-28T14:58:20;21.00;;;11.73;;
55146;SDS011;41039;49.830;23.988;2023-02-28T15:00:47;20.20;;;11.00;;
55146;SDS011;41039;49.830;23.988;2023-02-28T15:03:22;19.77;;;11.35;;
55146;SDS011;41039;49.830;23.988;2023-02-28T15:05:55;23.45;;;12.07;;
55146;SDS011;41039;49.830;23.988;2023-02-28T15:08:21;19.73;;;11.17;;
55146;SDS011;41039;49.830;23.988;2023-02-28T15:10:56;17.35;;;9.63;;
55146;SDS011;41039;49.830;23.988;2023-02-28T15:13:22;19.23;;;9.75;;
55146;SDS011;41039;49.830;23.988;2023-02-28T15:16:04;19.45;;;10.00;;
55146;SDS011;41039;49.830;23.988;2023-02-28T15:18:36;27.95;;;12.68;;
55146;SDS011;41039;49.830;23.988;2023-02-28T15:21:07;18.45;;;10.13;;
55146;SDS011;41039;49.830;23.988;2023-02-28T15:23:34;17.55;;;9.57;;
55146;SDS011;41039;49.830;23.988;2023-02-28T15:26:01;14.73;;;8.48;;
55146;SDS011;41039;49.830;23.988;2023-02-28T15:28:28;13.30;;;7.57;;
55146;SDS011;41039;49.830;23.988;2023-02-28T15:31:01;15.88;;;7.70;;
55146;SDS011;41039;49.830;23.988;2023-02-28T15:33:30;17.05;;;8.15;;
55146;SDS011;41039;49.830;23.988;2023-02-28T15:36:06;17.63;;;8.50;;
55146;SDS011;41039;49.830;23.988;2023-02-28T15:38:33;17.52;;;7.45;;
55146;SDS011;41039;49.830;23.988;2023-02-28T15:40:59;13.63;;;7.50;;
55146;SDS011;41039;49.830;23.988;2023-02-28T15:43:29;16.17;;;7.88;;
55146;SDS011;41039;49.830;23.988;2023-02-28T15:48:23;17.15;;;6.90;;
55146;SDS011;41039;49.830;23.988;2023-02-28T15:50:51;15.23;;;7.88;;
55146;SDS011;41039;49.830;23.988;2023-02-28T15:53:17;13.18;;;7.75;;
55146;SDS011;41039;49.830;23.988;2023-02-28T15:55:44;13.48;;;7.90;;
55146;SDS011;41039;49.830;23.988;2023-02-28T15:58:10;20.75;;;9.07;;
55146;SDS011;41039;49.830;23.988;2023-02-28T16:00:38;16.00;;;9.32;;
55146;SDS011;41039;49.830;23.988;2023-02-28T16:03:22;17.35;;;8.60;;
55146;SDS011;41039;49.830;23.988;2023-02-28T16:05:50;15.15;;;8.15;;
55146;SDS011;41039;49.830;23.988;2023-02-28T16:08:30;15.18;;;9.07;;
55146;SDS011;41039;49.830;23.988;2023-02-28T16:10:56;18.52;;;9.30;;
55146;SDS011;41039;49.830;23.988;2023-02-28T16:13:21;20.70;;;9.55;;
55146;SDS011;41039;49.830;23.988;2023-02-28T16:15:46;18.60;;;8.95;;
55146;SDS011;41039;49.830;23.988;2023-02-28T16:18:14;17.38;;;8.88;;
55146;SDS011;41039;49.830;23.988;2023-02-28T16:20:39;17.83;;;9.35;;
55146;SDS011;41039;49.830;23.988;2023-02-28T16:23:04;18.95;;;8.88;;
55146;SDS011;41039;49.830;23.988;2023-02-28T16:28:01;13.85;;;7.80;;
55146;SDS011;41039;49.830;23.988;2023-02-28T16:30:27;16.10;;;8.18;;
55146;SDS011;41039;49.830;23.988;2023-02-28T16:32:54;27.75;;;11.32;;